createdAt,value
2024-03-10T00:05:33.599Z,22.23
2024-03-10T00:11:27.932Z,22.43
2024-03-10T00:17:22.407Z,22.63
2024-03-10T00:23:16.016Z,21.67
2024-03-10T00:29:11.808Z,22.80
2024-03-10T00:35:10.256Z,21.77
2024-03-10T00:41:03.371Z,24.00
2024-03-10T00:46:58.474Z,22.07
2024-03-10T00:52:53.475Z,22.17
2024-03-10T00:58:47.150Z,21.90
2024-03-10T01:04:40.592Z,22.13
2024-03-10T01:10:36.998Z,23.30
2024-03-10T01:16:31.376Z,23.77
2024-03-10T01:22:24.762Z,22.20
2024-03-10T01:28:19.465Z,21.70
2024-03-10T01:34:12.936Z,23.30
2024-03-10T01:40:07.568Z,22.80
2024-03-10T01:46:08.137Z,22.33
2024-03-10T01:52:01.708Z,21.60
2024-03-10T01:57:54.883Z,21.80
2024-03-10T02:03:52.093Z,21.33
2024-03-10T02:09:46.364Z,23.43
2024-03-10T02:15:40.082Z,22.93
2024-03-10T02:21:35.310Z,22.20
2024-03-10T02:27:31.227Z,23.23
2024-03-10T02:33:42.023Z,22.33
2024-03-10T02:39:52.975Z,23.10
2024-03-10T02:46:05.537Z,22.73
2024-03-10T02:51:58.582Z,22.70
2024-03-10T02:57:51.804Z,22.27
2024-03-10T03:03:46.675Z,23.47
2024-03-10T03:09:40.363Z,22.40
2024-03-10T03:15:33.587Z,23.53
2024-03-10T03:21:27.921Z,22.53
2024-03-10T03:27:21.501Z,22.27
2024-03-10T03:33:14.914Z,22.93
2024-03-10T03:39:10.536Z,22.80
2024-03-10T03:45:04.356Z,23.00
2024-03-10T03:50:57.595Z,23.13
2024-03-10T03:56:52.175Z,23.13
2024-03-10T04:02:48.009Z,23.70
2024-03-10T04:08:41.058Z,22.90
2024-03-10T04:14:35.428Z,23.60
2024-03-10T04:20:29.085Z,22.90
2024-03-10T04:26:24.503Z,23.27
2024-03-10T04:32:18.949Z,23.10
2024-03-10T04:38:12.290Z,23.93
2024-03-10T04:44:05.948Z,24.57
2024-03-10T04:50:00.776Z,24.70
2024-03-10T04:55:53.908Z,23.40
2024-03-10T05:01:47.041Z,24.83
2024-03-10T05:07:42.174Z,24.20
2024-03-10T05:13:37.245Z,24.43
2024-03-10T05:19:30.953Z,24.03
2024-03-10T05:25:25.590Z,23.70
2024-03-10T05:31:29.387Z,25.37
2024-03-10T05:37:23.612Z,24.80
2024-03-10T05:43:18.205Z,25.43
2024-03-10T05:49:11.468Z,24.47
2024-03-10T05:55:08.607Z,23.90
2024-03-10T06:01:03.529Z,24.87
2024-03-10T06:06:56.848Z,23.10
2024-03-10T06:12:50.142Z,24.67
2024-03-10T06:19:02.234Z,24.67
2024-03-10T06:25:13.048Z,25.50
2024-03-10T06:31:06.151Z,24.67
2024-03-10T06:37:00.964Z,25.40
2024-03-10T06:42:54.169Z,24.47
2024-03-10T06:48:47.533Z,24.17
2024-03-10T06:54:42.521Z,24.10
2024-03-10T07:00:36.202Z,24.47
2024-03-10T07:06:29.694Z,24.10
2024-03-10T07:12:24.318Z,23.37
2024-03-10T07:18:17.746Z,24.60
2024-03-10T07:24:15.589Z,23.70
2024-03-10T07:30:13.806Z,25.50
2024-03-10T07:36:07.537Z,25.53
2024-03-10T07:42:00.984Z,26.67
2024-03-10T07:47:57.173Z,24.57
2024-03-10T07:53:50.554Z,24.50
2024-03-10T07:59:43.818Z,25.50
2024-03-10T08:05:39.380Z,24.20
2024-03-10T08:11:33.118Z,25.90
2024-03-10T08:17:26.274Z,25.57
2024-03-10T08:23:21.763Z,27.40
2024-03-10T08:29:15.044Z,25.57
2024-03-10T08:35:15.640Z,26.20
2024-03-10T08:41:12.053Z,26.90
2024-03-10T08:47:06.001Z,26.13
2024-03-10T08:52:59.529Z,26.17
2024-03-10T08:58:54.333Z,26.27
2024-03-10T09:04:47.334Z,24.60
2024-03-10T09:10:49.631Z,25.80
2024-03-10T09:16:49.866Z,25.43
2024-03-10T09:22:43.663Z,24.83
2024-03-10T09:28:37.942Z,25.13
2024-03-10T09:34:33.321Z,24.90
2024-03-10T09:40:30.486Z,24.33
2024-03-10T09:46:24.304Z,22.77
2024-03-10T09:52:20.223Z,23.37
2024-03-10T09:58:23.349Z,24.57
2024-03-10T10:04:26.863Z,24.43
2024-03-10T10:10:22.542Z,23.53
2024-03-10T10:16:15.571Z,23.10
2024-03-10T10:22:08.880Z,22.10
2024-03-10T10:28:03.722Z,23.17
2024-03-10T10:33:57.181Z,23.33
2024-03-10T10:39:50.779Z,23.57
2024-03-10T10:45:45.543Z,23.70
2024-03-10T10:51:39.493Z,23.67
2024-03-10T10:57:34.739Z,23.70
2024-03-10T11:03:30.594Z,21.10
2024-03-10T11:09:29.221Z,22.93
2024-03-10T11:15:25.451Z,22.23
2024-03-10T11:21:23.713Z,23.40
2024-03-10T11:27:20.064Z,21.60
2024-03-10T11:33:14.946Z,21.83
2024-03-10T11:39:21.286Z,21.67
2024-03-10T11:45:15.103Z,21.37
2024-03-10T11:51:09.816Z,21.53
2024-03-10T11:57:06.713Z,20.00
2024-03-10T12:03:00.322Z,21.87
2024-03-10T12:08:53.679Z,21.90
2024-03-10T12:14:48.525Z,22.27
2024-03-10T12:20:42.045Z,19.37
2024-03-10T12:26:35.258Z,22.10
2024-03-10T12:32:30.128Z,20.77
2024-03-10T12:38:23.743Z,22.20
2024-03-10T12:44:17.175Z,21.83
2024-03-10T12:50:12.927Z,24.80
2024-03-10T12:56:06.750Z,22.50
2024-03-10T13:02:00.235Z,22.50
2024-03-10T13:07:55.120Z,22.00
2024-03-10T13:13:48.590Z,22.43
2024-03-10T13:19:42.045Z,21.63
2024-03-10T13:25:37.505Z,21.80
2024-03-10T13:31:32.103Z,22.20
2024-03-10T13:37:25.966Z,22.23
2024-03-10T13:43:20.728Z,23.80
2024-03-10T13:49:14.207Z,21.77
2024-03-10T13:55:08.347Z,22.23
2024-03-10T14:01:05.179Z,23.00
2024-03-10T14:06:59.306Z,22.67
2024-03-10T14:12:52.640Z,22.47
2024-03-10T14:18:48.220Z,22.63
2024-03-10T14:24:42.054Z,21.50
2024-03-10T14:30:35.577Z,20.13
2024-03-10T14:36:33.045Z,21.00
2024-03-10T14:42:26.485Z,20.03
2024-03-10T14:48:20.100Z,19.80
2024-03-10T14:54:15.083Z,18.77
2024-03-10T15:00:10.658Z,17.40
2024-03-10T15:06:04.070Z,19.10
2024-03-10T15:11:58.910Z,18.43
2024-03-10T15:17:53.584Z,18.27
2024-03-10T15:23:47.020Z,18.70
2024-03-10T15:29:42.680Z,20.10
2024-03-10T15:35:36.323Z,18.10
2024-03-10T15:41:29.960Z,19.30
2024-03-10T15:47:24.709Z,19.30
2024-03-10T15:53:18.619Z,18.87
2024-03-10T15:59:12.142Z,19.87
2024-03-10T16:05:15.832Z,16.23
2024-03-10T16:11:09.415Z,17.87
2024-03-10T16:17:09.615Z,17.47
2024-03-10T16:23:04.334Z,18.60
2024-03-10T16:28:57.831Z,18.40
2024-03-10T16:34:51.810Z,19.77
2024-03-10T16:40:47.684Z,21.70
2024-03-10T16:46:41.138Z,22.20
2024-03-10T16:52:34.554Z,24.20
2024-03-10T16:58:30.734Z,22.43
2024-03-10T17:04:24.206Z,22.50
2024-03-10T17:10:17.665Z,24.10
2024-03-10T17:16:13.707Z,22.70
2024-03-10T17:22:10.202Z,22.73
2024-03-10T17:28:05.760Z,23.73
2024-03-10T17:34:00.649Z,21.43
2024-03-10T17:39:56.691Z,22.93
2024-03-10T17:45:51.557Z,20.97
2024-03-10T17:51:46.814Z,21.97
2024-03-10T17:57:40.469Z,21.07
2024-03-10T18:03:33.590Z,19.80
2024-03-10T18:09:28.868Z,20.20
2024-03-10T18:15:23.088Z,20.47
2024-03-10T18:21:16.540Z,19.60
2024-03-10T18:27:11.603Z,18.70
2024-03-10T18:33:07.863Z,20.47
2024-03-10T18:39:01.613Z,21.10
2024-03-10T18:44:56.046Z,21.60
2024-03-10T18:50:54.587Z,22.73
2024-03-10T18:56:52.636Z,21.50
2024-03-10T19:02:47.339Z,20.03
2024-03-10T19:08:40.699Z,20.57
2024-03-10T19:14:34.079Z,18.97
2024-03-10T19:20:31.491Z,19.60
2024-03-10T19:26:25.104Z,20.53
2024-03-10T19:32:18.307Z,19.20
2024-03-10T19:38:13.555Z,18.90
2024-03-10T19:44:07.218Z,19.30
2024-03-10T19:50:00.669Z,20.27
2024-03-10T19:55:56.260Z,18.93
2024-03-10T20:01:51.418Z,19.17
2024-03-10T20:07:48.801Z,18.30
2024-03-10T20:13:44.038Z,18.70
2024-03-10T20:19:38.346Z,18.27
2024-03-10T20:25:32.465Z,18.93
2024-03-10T20:31:27.115Z,19.00
2024-03-10T20:37:20.499Z,16.70
2024-03-10T20:43:13.822Z,18.60
2024-03-10T20:49:08.351Z,16.80
2024-03-10T20:55:01.727Z,17.63
2024-03-10T21:00:55.983Z,17.10
2024-03-10T21:06:50.856Z,16.93
2024-03-10T21:12:44.517Z,16.40
2024-03-10T21:18:41.041Z,17.40
2024-03-10T21:24:36.488Z,17.07
2024-03-10T21:30:29.780Z,19.00
2024-03-10T21:36:24.744Z,17.30
2024-03-10T21:42:21.008Z,18.57
2024-03-10T21:48:14.644Z,17.73
2024-03-10T21:54:11.365Z,18.80
2024-03-10T22:00:16.510Z,16.37
2024-03-10T22:06:10.570Z,16.73
2024-03-10T22:12:03.989Z,15.70
2024-03-10T22:17:59.866Z,16.47
2024-03-10T22:23:53.636Z,16.77
2024-03-10T22:29:48.297Z,16.33
2024-03-10T22:35:42.965Z,16.93
2024-03-10T22:41:37.659Z,16.87
2024-03-10T22:47:32.216Z,17.47
2024-03-10T22:53:26.906Z,17.40
2024-03-10T22:59:21.375Z,16.97
2024-03-10T23:05:14.997Z,15.80
2024-03-10T23:11:09.918Z,17.17
2024-03-10T23:17:03.284Z,17.00
2024-03-10T23:22:58.706Z,17.10
2024-03-10T23:28:53.716Z,16.13
2024-03-10T23:34:47.107Z,15.87
2024-03-10T23:40:40.327Z,16.93
2024-03-10T23:46:35.064Z,15.37
2024-03-10T23:52:28.722Z,16.80
2024-03-10T23:58:22.347Z,16.70
